Time;durP1;ratioP1;P1;durP2;ratioP2;P2;SDS_P1;SDS_P2;PMS_P1;PMS_P2;Temp;Humidity;BMP_temperature;BMP_pressure;BME280_temperature;BME280_humidity;BME280_pressure;Samples;Min_cycle;Max_cycle;Signal;HPM_P1;HPM_P2
2022/06/11 00:00:05;;;;;;;1.10;1.00;;;17.80;78.80;;;;;;5013636;28;20038;-74
2022/06/11 00:02:31;;;;;;;1.48;0.77;;;17.80;79.00;;;;;;4979774;28;20061;-74
2022/06/11 00:04:57;;;;;;;0.77;0.77;;;17.70;79.00;;;;;;5013838;28;20068;-74
2022/06/11 00:07:23;;;;;;;0.60;0.60;;;17.70;79.00;;;;;;4996074;28;20034;-74
2022/06/11 00:09:52;;;;;;;0.70;0.70;;;17.70;79.00;;;;;;4995970;28;20397;-75
2022/06/11 00:12:18;;;;;;;0.68;0.68;;;17.70;79.10;;;;;;5013627;28;20172;-74
2022/06/11 00:14:46;;;;;;;0.50;0.50;;;17.70;79.20;;;;;;5013747;28;20397;-75
2022/06/11 00:17:16;;;;;;;0.70;0.70;;;17.60;79.20;;;;;;4994204;28;20038;-74
2022/06/11 00:19:43;;;;;;;0.95;0.60;;;17.60;79.20;;;;;;4996008;28;20378;-75
2022/06/11 00:22:10;;;;;;;0.60;0.60;;;17.60;79.20;;;;;;5013235;28;20499;-75
2022/06/11 00:24:38;;;;;;;0.90;0.80;;;17.60;79.20;;;;;;4995678;28;20038;-74
2022/06/11 00:27:05;;;;;;;0.70;0.70;;;17.40;79.20;;;;;;5013042;28;20034;-74
2022/06/11 00:29:34;;;;;;;1.35;0.70;;;17.50;79.30;;;;;;5013231;28;20042;-75
2022/06/11 00:32:00;;;;;;;1.05;0.70;;;17.40;79.40;;;;;;4995622;28;20401;-75
2022/06/11 00:34:26;;;;;;;1.17;0.88;;;17.40;79.60;;;;;;5013189;28;20038;-75
2022/06/11 00:36:52;;;;;;;0.75;0.68;;;17.30;79.70;;;;;;5013202;28;20038;-75
2022/06/11 00:39:21;;;;;;;2.05;1.02;;;17.30;79.80;;;;;;4979285;28;20523;-74
2022/06/11 00:41:52;;;;;;;0.50;0.50;;;17.20;79.80;;;;;;5012955;28;20037;-75
2022/06/11 00:44:18;;;;;;;0.80;0.80;;;17.20;79.80;;;;;;5013487;28;20121;-74
2022/06/11 00:46:59;;;;;;;1.35;0.88;;;17.20;79.80;;;;;;5012831;28;20049;-76
2022/06/11 00:49:34;;;;;;;0.75;0.65;;;17.20;79.90;;;;;;5012917;28;20064;-75
2022/06/11 00:52:23;;;;;;;0.70;0.60;;;17.10;79.80;;;;;;5012781;28;20101;-75
2022/06/11 00:55:04;;;;;;;0.60;0.60;;;17.10;79.90;;;;;;4995924;28;20390;-75
2022/06/11 00:57:35;;;;;;;0.85;0.75;;;17.10;79.90;;;;;;5013530;28;20441;-75
2022/06/11 01:00:12;;;;;;;1.05;0.73;;;17.00;79.80;;;;;;4995702;28;20494;-74
2022/06/11 01:02:38;;;;;;;0.75;0.60;;;17.10;79.90;;;;;;4994958;28;20394;-75
2022/06/11 01:05:05;;;;;;;0.82;0.63;;;17.00;79.80;;;;;;4995291;28;20038;-74
2022/06/11 01:07:49;;;;;;;0.70;0.70;;;17.00;79.90;;;;;;5012873;28;20087;-75
2022/06/11 01:10:41;;;;;;;1.08;0.70;;;16.90;79.90;;;;;;5013076;28;20092;-75
2022/06/11 01:13:31;;;;;;;0.55;0.55;;;16.90;80.00;;;;;;5010800;28;20046;-75
2022/06/11 01:16:02;;;;;;;0.50;0.50;;;16.90;80.00;;;;;;4994660;28;20061;-74
2022/06/11 01:18:51;;;;;;;0.50;0.50;;;16.80;80.00;;;;;;5012194;28;20084;-74
2022/06/11 01:21:35;;;;;;;0.60;0.60;;;16.80;80.10;;;;;;4997061;28;20088;-75
2022/06/11 01:24:31;;;;;;;0.45;0.45;;;16.70;80.10;;;;;;5012583;28;20034;-75
2022/06/11 01:27:25;;;;;;;0.60;0.60;;;16.70;80.30;;;;;;5012394;28;20033;-74
2022/06/11 01:29:58;;;;;;;0.50;0.50;;;16.70;80.30;;;;;;4996550;28;20041;-75
2022/06/11 01:32:40;;;;;;;0.50;0.50;;;16.60;80.30;;;;;;4993071;28;20046;-75
2022/06/11 01:35:09;;;;;;;;;;;16.50;80.50;;;;;;4994342;28;20042;-74
2022/06/11 01:37:43;;;;;;;1.08;0.50;;;16.50;80.50;;;;;;4994727;28;20011;-74
2022/06/11 01:40:26;;;;;;;1.33;0.90;;;16.60;80.50;;;;;;5012636;28;20064;-75
2022/06/11 01:42:58;;;;;;;0.93;0.68;;;16.50;80.50;;;;;;5012316;28;20478;-75
2022/06/11 01:45:36;;;;;;;0.60;0.60;;;16.50;80.40;;;;;;5010244;28;20038;-74
2022/06/11 01:48:05;;;;;;;2.25;0.93;;;16.50;80.40;;;;;;5011991;28;20092;-75
2022/06/11 01:50:37;;;;;;;2.15;1.10;;;16.50;80.30;;;;;;5012072;28;20049;-74
2022/06/11 01:53:33;;;;;;;0.82;0.77;;;16.50;80.30;;;;;;4994850;28;20042;-75
2022/06/11 01:56:12;;;;;;;0.80;0.70;;;16.50;80.40;;;;;;5012030;28;20056;-74
2022/06/11 01:58:56;;;;;;;1.90;0.90;;;16.50;80.30;;;;;;4994439;28;20044;-74
2022/06/11 02:01:41;;;;;;;0.70;0.70;;;16.50;80.40;;;;;;4994264;28;20453;-74
2022/06/11 02:04:23;;;;;;;0.50;0.50;;;16.50;80.40;;;;;;5012395;28;20038;-75
2022/06/11 02:07:01;;;;;;;1.08;0.75;;;16.40;80.40;;;;;;4994043;28;20440;-75
2022/06/11 02:09:41;;;;;;;0.80;0.80;;;16.40;80.40;;;;;;5011781;28;20042;-74
2022/06/11 02:12:21;;;;;;;1.25;0.70;;;16.40;80.60;;;;;;4993678;28;20045;-75
2022/06/11 02:14:55;;;;;;;0.82;0.70;;;16.30;80.60;;;;;;4994843;28;20111;-75
2022/06/11 02:17:25;;;;;;;0.88;0.82;;;16.30;80.70;;;;;;5012322;28;20068;-75
2022/06/11 02:19:59;;;;;;;0.70;0.70;;;16.30;80.80;;;;;;5012145;28;20088;-74
2022/06/11 02:22:33;;;;;;;0.68;0.68;;;16.20;80.80;;;;;;5009585;28;20030;-75
2022/06/11 02:25:07;;;;;;;0.82;0.80;;;16.20;80.80;;;;;;5011499;28;20398;-75
2022/06/11 02:27:34;;;;;;;0.77;0.77;;;16.20;80.90;;;;;;5012404;28;20108;-75
2022/06/11 02:30:01;;;;;;;0.70;0.70;;;16.20;80.90;;;;;;5015176;28;20075;-75
2022/06/11 02:32:30;;;;;;;0.80;0.70;;;16.20;80.90;;;;;;5015443;28;20037;-75
2022/06/11 02:35:01;;;;;;;0.65;0.60;;;16.10;80.80;;;;;;4997459;28;20045;-74
2022/06/11 02:37:32;;;;;;;0.60;0.60;;;16.10;80.90;;;;;;5015597;28;20490;-75
2022/06/11 02:40:05;;;;;;;1.30;0.80;;;16.10;81.10;;;;;;4995131;28;20027;-75
2022/06/11 02:42:31;;;;;;;1.30;0.77;;;16.00;81.10;;;;;;5015471;28;20124;-75
2022/06/11 02:44:57;;;;;;;0.70;0.70;;;16.10;81.20;;;;;;5015129;28;20469;-74
2022/06/11 02:47:23;;;;;;;0.93;0.68;;;16.00;81.20;;;;;;5014868;28;20034;-74
2022/06/11 02:49:49;;;;;;;1.40;0.85;;;16.10;81.20;;;;;;5014971;28;20026;-75
2022/06/11 02:52:19;;;;;;;0.80;0.80;;;16.10;81.20;;;;;;5014855;28;20474;-74
2022/06/11 02:54:47;;;;;;;0.70;0.70;;;16.10;81.20;;;;;;4996994;28;20049;-75
2022/06/11 02:57:17;;;;;;;0.80;0.70;;;16.10;81.20;;;;;;5014586;28;20034;-74
2022/06/11 02:59:44;;;;;;;0.77;0.77;;;16.00;81.20;;;;;;5014637;28;20039;-75
2022/06/11 03:02:10;;;;;;;1.23;0.80;;;16.00;81.20;;;;;;4996832;28;20116;-75
2022/06/11 03:04:36;;;;;;;0.70;0.70;;;16.00;81.30;;;;;;4997584;28;20422;-75
2022/06/11 03:07:03;;;;;;;0.90;0.82;;;15.90;81.30;;;;;;4997369;28;20037;-75
2022/06/11 03:09:32;;;;;;;2.58;0.90;;;16.00;81.40;;;;;;5014610;28;20641;-75
2022/06/11 03:11:59;;;;;;;1.35;0.70;;;15.90;81.50;;;;;;4996594;28;20046;-75
2022/06/11 03:14:25;;;;;;;1.00;0.90;;;15.80;81.50;;;;;;5014499;28;20045;-75
2022/06/11 03:16:51;;;;;;;0.82;0.80;;;15.90;81.60;;;;;;4996466;28;20542;-75
2022/06/11 03:19:20;;;;;;;1.25;0.90;;;15.90;81.60;;;;;;5014134;28;20092;-75
2022/06/11 03:21:47;;;;;;;0.90;0.90;;;15.80;81.60;;;;;;5014199;28;20034;-75
2022/06/11 03:24:13;;;;;;;0.98;0.88;;;15.80;81.70;;;;;;5014924;28;20437;-75
2022/06/11 03:26:39;;;;;;;1.38;0.90;;;15.80;81.80;;;;;;5014415;28;20022;-75
2022/06/11 03:29:05;;;;;;;1.33;0.85;;;15.80;81.70;;;;;;4979981;28;20045;-75
2022/06/11 03:31:31;;;;;;;1.20;0.80;;;15.80;81.70;;;;;;5014587;28;20034;-75
2022/06/11 03:33:58;;;;;;;0.90;0.90;;;15.80;81.80;;;;;;5014123;28;20037;-74
2022/06/11 03:36:24;;;;;;;0.95;0.80;;;15.80;81.80;;;;;;4996822;28;20042;-75
2022/06/11 03:38:50;;;;;;;0.60;0.60;;;15.80;81.80;;;;;;5014189;28;20113;-74
2022/06/11 03:41:17;;;;;;;0.80;0.80;;;15.80;81.80;;;;;;4979614;28;20065;-75
2022/06/11 03:43:43;;;;;;;0.68;0.60;;;15.70;81.80;;;;;;5014537;28;20030;-74
2022/06/11 03:46:09;;;;;;;0.70;0.70;;;15.80;81.80;;;;;;5014433;28;20037;-75
2022/06/11 03:48:37;;;;;;;1.52;0.68;;;15.70;81.80;;;;;;5013682;28;20040;-75
2022/06/11 03:51:04;;;;;;;0.95;0.90;;;15.80;81.80;;;;;;4979025;28;20434;-75
2022/06/11 03:53:31;;;;;;;0.88;0.70;;;15.70;81.90;;;;;;5014424;28;20077;-74
2022/06/11 03:55:58;;;;;;;1.08;0.65;;;15.70;82.50;;;;;;4996260;28;20046;-75
2022/06/11 03:58:23;;;;;;;1.38;0.80;;;15.70;81.90;;;;;;5014265;28;20056;-75
2022/06/11 04:03:34;;;;;;;0.50;0.50;;;15.70;81.90;;;;;;5013832;28;20400;-75
2022/06/11 04:06:00;;;;;;;1.02;0.70;;;15.70;81.90;;;;;;4996413;28;20052;-75
2022/06/11 04:08:26;;;;;;;1.27;0.60;;;15.70;81.90;;;;;;4995824;28;20038;-75
2022/06/11 04:10:54;;;;;;;1.00;0.70;;;15.70;82.00;;;;;;4980483;28;20092;-75
2022/06/11 04:13:21;;;;;;;0.57;0.57;;;15.70;82.00;;;;;;5014240;28;20040;-75
2022/06/11 04:15:48;;;;;;;0.70;0.70;;;15.70;82.00;;;;;;5013792;28;20042;-75
2022/06/11 04:18:26;;;;;;;0.80;0.65;;;15.60;81.90;;;;;;4997053;28;20042;-75
2022/06/11 04:20:53;;;;;;;1.60;0.80;;;15.70;81.90;;;;;;4996159;28;20041;-75
2022/06/11 04:23:19;;;;;;;0.60;0.50;;;15.70;81.90;;;;;;5013653;28;20506;-75
2022/06/11 04:25:45;;;;;;;0.60;0.60;;;15.70;81.90;;;;;;5013482;28;20042;-75
2022/06/11 04:28:12;;;;;;;0.88;0.50;;;15.70;81.80;;;;;;5013598;28;20106;-75
2022/06/11 04:30:38;;;;;;;0.70;0.57;;;15.80;81.80;;;;;;5013597;28;20045;-75
2022/06/11 04:33:05;;;;;;;0.50;0.50;;;15.70;81.70;;;;;;4994553;28;20061;-75
2022/06/11 04:35:31;;;;;;;1.52;0.90;;;15.80;81.80;;;;;;5011505;28;20080;-75
2022/06/11 04:37:58;;;;;;;1.83;0.70;;;15.70;81.70;;;;;;4995740;28;20050;-75
2022/06/11 04:40:24;;;;;;;1.48;0.52;;;15.70;81.70;;;;;;5013733;28;20034;-75
2022/06/11 04:42:50;;;;;;;0.95;0.70;;;15.80;81.70;;;;;;5013851;28;20121;-74
2022/06/11 04:45:18;;;;;;;1.23;0.75;;;15.70;81.60;;;;;;4996583;28;20057;-75
2022/06/11 04:47:45;;;;;;;1.92;0.80;;;15.80;81.60;;;;;;5013986;28;20030;-76
2022/06/11 04:50:15;;;;;;;1.63;0.65;;;15.80;81.60;;;;;;5013218;28;20030;-77
2022/06/11 04:52:40;;;;;;;0.90;0.75;;;15.80;81.50;;;;;;4979184;28;20042;-76
2022/06/11 04:55:06;;;;;;;0.63;0.60;;;15.80;81.50;;;;;;5013628;28;20105;-77
2022/06/11 04:57:33;;;;;;;1.45;0.65;;;15.80;81.40;;;;;;4995770;28;20041;-77
2022/06/11 04:59:59;;;;;;;0.93;0.70;;;15.70;81.30;;;;;;4995767;28;20033;-76
2022/06/11 05:02:24;;;;;;;1.20;0.70;;;15.80;81.40;;;;;;5012453;28;20030;-76
2022/06/11 05:04:52;;;;;;;1.23;0.70;;;15.90;81.20;;;;;;5013761;28;20145;-77
2022/06/11 05:07:19;;;;;;;1.00;0.43;;;15.90;81.10;;;;;;5013111;28;20038;-76
2022/06/11 05:09:45;;;;;;;0.50;0.50;;;16.00;81.00;;;;;;5013184;28;20042;-75
2022/06/11 05:12:11;;;;;;;1.88;0.70;;;16.10;80.80;;;;;;5012900;28;20037;-76
2022/06/11 05:14:39;;;;;;;1.52;0.50;;;16.10;80.60;;;;;;5013087;28;20042;-76
2022/06/11 05:17:05;;;;;;;0.73;0.40;;;16.10;80.30;;;;;;4995554;28;20088;-76
2022/06/11 05:19:30;;;;;;;0.68;0.60;;;16.20;80.40;;;;;;4994634;28;20125;-76
2022/06/11 05:21:56;;;;;;;1.58;0.68;;;16.30;80.40;;;;;;5012882;28;20077;-76
2022/06/11 05:24:23;;;;;;;0.70;0.40;;;16.30;80.20;;;;;;5012734;28;20042;-76
2022/06/11 05:26:56;;;;;;;1.55;0.60;;;16.40;80.00;;;;;;5012754;28;20066;-76
2022/06/11 05:29:31;;;;;;;0.47;0.32;;;16.60;79.80;;;;;;5013431;28;20029;-77
2022/06/11 05:31:58;;;;;;;1.20;0.50;;;16.50;79.80;;;;;;5012780;28;20037;-76
2022/06/11 05:34:24;;;;;;;1.90;0.70;;;16.60;79.80;;;;;;4994836;28;20022;-76
2022/06/11 05:36:51;;;;;;;1.02;0.45;;;16.70;79.50;;;;;;5012551;28;20088;-75
2022/06/11 05:39:17;;;;;;;1.60;0.50;;;16.60;79.30;;;;;;4994174;28;20034;-76
2022/06/11 05:41:43;;;;;;;1.15;0.60;;;16.60;79.40;;;;;;5012569;28;20125;-76
2022/06/11 05:44:09;;;;;;;2.08;0.68;;;16.60;79.50;;;;;;5012650;28;20048;-75
2022/06/11 05:46:35;;;;;;;0.68;0.50;;;16.70;79.50;;;;;;4994809;28;20041;-76
2022/06/11 05:49:06;;;;;;;1.65;0.70;;;16.70;79.40;;;;;;5012474;28;20029;-77
2022/06/11 05:51:37;;;;;;;1.33;0.70;;;16.80;79.40;;;;;;5012170;28;20041;-77
2022/06/11 05:54:03;;;;;;;;;;;16.80;79.10;;;;;;5012774;28;20038;-76
2022/06/11 05:56:30;;;;;;;2.38;0.70;;;16.90;79.10;;;;;;5012365;28;19920;-75
2022/06/11 05:59:01;;;;;;;1.40;0.70;;;16.90;79.10;;;;;;4994589;28;20046;-76
2022/06/11 06:01:32;;;;;;;1.75;0.70;;;16.90;78.90;;;;;;5012359;28;20041;-76
2022/06/11 06:03:57;;;;;;;;;;;17.00;78.90;;;;;;5012183;28;20048;-76
2022/06/11 06:06:23;;;;;;;2.03;0.80;;;17.00;78.80;;;;;;5010397;28;20413;-75
2022/06/11 06:08:49;;;;;;;3.00;0.82;;;17.00;78.80;;;;;;5012229;28;20030;-76
2022/06/11 06:11:15;;;;;;;2.58;0.75;;;17.00;78.80;;;;;;4978389;28;20505;-75
2022/06/11 06:13:48;;;;;;;1.35;0.43;;;17.10;78.70;;;;;;4994364;28;20037;-75
2022/06/11 06:16:18;;;;;;;1.00;0.50;;;17.10;78.60;;;;;;4995572;28;20096;-75
2022/06/11 06:18:45;;;;;;;1.38;0.50;;;17.20;78.50;;;;;;5011760;28;20034;-74
2022/06/11 06:21:11;;;;;;;1.52;0.80;;;17.30;78.40;;;;;;5011924;28;20038;-75
2022/06/11 06:23:38;;;;;;;1.95;0.73;;;17.30;78.30;;;;;;4977915;28;20041;-75
2022/06/11 06:26:04;;;;;;;1.05;0.50;;;17.40;78.20;;;;;;4961087;28;20031;-76
2022/06/11 06:28:31;;;;;;;1.95;0.70;;;17.30;78.10;;;;;;4994241;28;20045;-75
2022/06/11 06:30:58;;;;;;;2.13;0.73;;;17.40;78.10;;;;;;4994022;28;20441;-76
2022/06/11 06:33:25;;;;;;;2.05;0.70;;;17.50;78.00;;;;;;5011995;28;20034;-76
2022/06/11 06:35:51;;;;;;;1.55;0.80;;;17.60;77.80;;;;;;5012328;28;20046;-76
2022/06/11 06:38:17;;;;;;;2.67;0.90;;;17.70;77.60;;;;;;5011393;28;20034;-76
2022/06/11 06:40:43;;;;;;;1.45;0.52;;;17.80;77.30;;;;;;5011999;28;20041;-75
2022/06/11 06:43:09;;;;;;;1.02;0.60;;;18.00;77.20;;;;;;5012045;28;20049;-76
2022/06/11 06:45:35;;;;;;;1.80;0.60;;;18.10;76.90;;;;;;4992948;28;20066;-76
2022/06/11 06:48:02;;;;;;;3.22;0.70;;;18.10;76.80;;;;;;5011714;28;20113;-77
2022/06/11 06:50:28;;;;;;;2.08;0.80;;;18.20;76.70;;;;;;4978058;28;20090;-77
2022/06/11 06:52:54;;;;;;;1.45;0.60;;;18.30;76.60;;;;;;5012137;28;20042;-76
2022/06/11 06:55:20;;;;;;;1.95;0.52;;;18.40;76.50;;;;;;5011420;28;20490;-76
2022/06/11 06:57:46;;;;;;;3.22;0.65;;;18.50;76.30;;;;;;5011614;28;20034;-75
2022/06/11 07:00:12;;;;;;;2.58;0.70;;;18.60;76.20;;;;;;4993480;28;20045;-75
2022/06/11 07:02:38;;;;;;;3.00;1.00;;;18.70;75.90;;;;;;5011522;28;20041;-75
2022/06/11 07:05:05;;;;;;;2.75;0.70;;;18.90;75.90;;;;;;4993650;28;20445;-76
2022/06/11 07:07:31;;;;;;;1.45;0.77;;;19.00;75.60;;;;;;4994758;28;20034;-75
2022/06/11 07:09:57;;;;;;;1.20;0.60;;;19.10;75.50;;;;;;4993947;28;20188;-75
2022/06/11 07:12:23;;;;;;;0.75;0.50;;;19.30;75.40;;;;;;4994449;28;20551;-75
2022/06/11 07:14:49;;;;;;;3.85;0.90;;;19.40;74.90;;;;;;5012276;28;20038;-75
2022/06/11 07:17:18;;;;;;;1.52;0.60;;;19.50;75.00;;;;;;4981818;28;20030;-75
2022/06/11 07:19:50;;;;;;;0.70;0.50;;;19.60;75.00;;;;;;4997262;28;20026;-75
2022/06/11 07:22:23;;;;;;;1.10;0.70;;;19.70;74.90;;;;;;4981359;28;20116;-75
2022/06/11 07:24:48;;;;;;;1.17;0.70;;;19.80;74.70;;;;;;5014540;28;20045;-75
2022/06/11 07:27:22;;;;;;;1.25;0.55;;;19.80;74.90;;;;;;5015281;28;20038;-75
2022/06/11 07:29:54;;;;;;;1.83;0.85;;;19.90;75.00;;;;;;5014523;28;20042;-76
2022/06/11 07:32:22;;;;;;;1.42;0.75;;;19.80;74.90;;;;;;5014540;28;20042;-74
2022/06/11 07:34:48;;;;;;;1.63;0.70;;;19.70;75.30;;;;;;5014371;28;20042;-73
2022/06/11 07:37:15;;;;;;;1.17;0.80;;;19.60;75.80;;;;;;4997435;28;20961;-73
2022/06/11 07:39:41;;;;;;;2.80;0.75;;;19.80;75.90;;;;;;4980484;28;20030;-75
2022/06/11 07:42:07;;;;;;;2.13;0.93;;;19.90;75.70;;;;;;4996700;28;20029;-74
2022/06/11 07:44:36;;;;;;;1.75;0.82;;;20.10;75.30;;;;;;5014208;28;20030;-75
2022/06/11 07:47:02;;;;;;;3.17;0.93;;;20.30;74.80;;;;;;5014828;28;20113;-74
2022/06/11 07:49:28;;;;;;;1.60;0.82;;;20.40;74.40;;;;;;5014828;28;20057;-74
2022/06/11 07:51:54;;;;;;;2.03;0.82;;;20.40;74.40;;;;;;5014701;28;20426;-75
2022/06/11 07:54:20;;;;;;;2.80;1.13;;;20.60;74.30;;;;;;4996655;28;20138;-75
2022/06/11 07:56:46;;;;;;;1.38;0.63;;;20.80;74.60;;;;;;5014216;28;20049;-75
2022/06/11 07:59:12;;;;;;;1.38;0.70;;;21.00;73.50;;;;;;4995579;28;20030;-75
2022/06/11 08:01:38;;;;;;;0.95;0.52;;;21.30;73.20;;;;;;4996128;28;20072;-74
2022/06/11 08:04:04;;;;;;;1.30;0.63;;;21.30;72.90;;;;;;5013900;28;20049;-75
2022/06/11 08:06:31;;;;;;;1.23;0.60;;;21.40;72.70;;;;;;5013900;28;20041;-75
2022/06/11 08:08:57;;;;;;;2.05;0.80;;;21.40;72.60;;;;;;5014054;28;20038;-74
2022/06/11 08:11:23;;;;;;;1.00;0.60;;;21.50;72.50;;;;;;5013822;28;20127;-74
2022/06/11 08:13:49;;;;;;;1.52;0.60;;;21.60;72.20;;;;;;4996375;28;20038;-74
2022/06/11 08:16:15;;;;;;;1.58;0.70;;;21.90;72.30;;;;;;4996567;28;20038;-75
2022/06/11 08:18:42;;;;;;;1.95;0.80;;;22.00;72.00;;;;;;4996189;28;20130;-75
2022/06/11 08:21:08;;;;;;;3.17;0.90;;;22.10;71.60;;;;;;5013977;28;20477;-74
2022/06/11 08:23:34;;;;;;;0.85;0.63;;;22.10;71.50;;;;;;5013615;28;20065;-75
2022/06/11 08:26:00;;;;;;;2.40;0.80;;;22.10;71.70;;;;;;5013477;28;20061;-74
2022/06/11 08:28:26;;;;;;;1.75;0.73;;;22.20;71.40;;;;;;5013504;28;20491;-74
2022/06/11 08:30:52;;;;;;;2.50;0.73;;;22.20;71.20;;;;;;5013503;28;20062;-75
2022/06/11 08:33:18;;;;;;;3.17;0.63;;;22.30;71.30;;;;;;5013400;28;20064;-75
2022/06/11 08:35:44;;;;;;;2.38;0.60;;;22.40;71.20;;;;;;5013268;28;20045;-75
2022/06/11 08:38:10;;;;;;;2.55;1.00;;;22.50;70.80;;;;;;5013896;28;20076;-75
2022/06/11 08:40:53;;;;;;;2.38;0.90;;;22.70;70.60;;;;;;4995118;28;20478;-75
2022/06/11 08:43:27;;;;;;;2.65;0.90;;;22.70;70.00;;;;;;5013287;28;20030;-75
2022/06/11 08:45:58;;;;;;;1.50;0.65;;;22.70;70.20;;;;;;4995351;28;20030;-76
2022/06/11 08:48:43;;;;;;;1.65;0.80;;;22.60;70.50;;;;;;5013760;28;20033;-75
2022/06/11 08:51:27;;;;;;;2.55;0.68;;;22.70;70.30;;;;;;5013184;28;20068;-75
2022/06/11 08:53:57;;;;;;;1.58;0.63;;;22.70;70.20;;;;;;5013167;28;20034;-75
2022/06/11 08:56:34;;;;;;;2.03;0.67;;;22.80;70.20;;;;;;4971604;28;20046;-74
2022/06/11 08:59:23;;;;;;;5.50;0.93;;;22.90;70.00;;;;;;5013339;28;20269;-74
2022/06/11 09:02:06;;;;;;;1.80;0.70;;;23.20;69.60;;;;;;5013389;28;20029;-74
2022/06/11 09:05:01;;;;;;;0.47;0.40;;;23.10;69.40;;;;;;5012813;28;20034;-73
2022/06/11 09:07:45;;;;;;;1.40;0.63;;;23.00;69.60;;;;;;5012165;28;20029;-75
2022/06/11 09:10:35;;;;;;;2.72;0.60;;;22.70;69.90;;;;;;4995338;28;20033;-74
2022/06/11 09:13:23;;;;;;;1.63;0.73;;;22.60;70.40;;;;;;5013445;28;20033;-75
2022/06/11 09:16:16;;;;;;;2.10;0.80;;;22.50;70.80;;;;;;5013210;28;20038;-75
2022/06/11 09:19:09;;;;;;;3.80;1.15;;;22.50;70.70;;;;;;5012795;28;20034;-74
2022/06/11 09:22:07;;;;;;;4.28;1.00;;;22.50;70.40;;;;;;4997547;28;20026;-75
2022/06/11 09:24:56;;;;;;;2.05;0.80;;;22.70;70.10;;;;;;4995095;28;20026;-76
2022/06/11 09:27:31;;;;;;;1.88;0.80;;;23.00;69.60;;;;;;4995510;28;20392;-75
2022/06/11 09:30:11;;;;;;;1.80;0.50;;;23.10;69.10;;;;;;4994867;28;20405;-74
2022/06/11 09:33:07;;;;;;;1.70;0.60;;;23.20;68.90;;;;;;5013217;28;20034;-74
2022/06/11 09:35:57;;;;;;;1.42;0.80;;;23.30;68.70;;;;;;5012378;28;20034;-75
2022/06/11 09:38:48;;;;;;;1.73;0.70;;;23.30;68.40;;;;;;5012430;28;20038;-75
2022/06/11 09:41:39;;;;;;;1.42;0.70;;;23.20;68.80;;;;;;4998335;28;20105;-75
2022/06/11 09:44:25;;;;;;;3.40;0.90;;;23.30;68.70;;;;;;5012371;28;20062;-75
2022/06/11 09:46:58;;;;;;;3.67;1.02;;;23.40;68.50;;;;;;4978482;28;20033;-74
2022/06/11 09:49:39;;;;;;;1.70;0.70;;;23.60;68.20;;;;;;4994657;28;20038;-74
2022/06/11 09:52:24;;;;;;;2.10;0.90;;;23.60;67.80;;;;;;5012047;28;20117;-73
2022/06/11 09:55:00;;;;;;;2.33;0.55;;;23.60;67.60;;;;;;5012341;28;20034;-76
2022/06/11 09:57:43;;;;;;;1.98;0.80;;;23.60;67.90;;;;;;5012430;28;20038;-76
2022/06/11 10:00:28;;;;;;;1.65;0.70;;;23.40;67.90;;;;;;5012633;28;20100;-75
2022/06/11 10:03:29;;;;;;;1.42;0.73;;;23.20;68.50;;;;;;5012221;28;20037;-75
2022/06/11 10:05:58;;;;;;;;;;;23.30;68.60;;;;;;4997989;28;20041;-76
2022/06/11 10:08:37;;;;;;;2.25;0.80;;;23.40;68.60;;;;;;5011991;28;19913;-76
2022/06/11 10:11:09;;;;;;;2.67;0.82;;;23.20;68.70;;;;;;5009903;28;20034;-75
2022/06/11 10:13:47;;;;;;;2.35;0.80;;;23.30;68.70;;;;;;5012146;28;20088;-75
2022/06/11 10:16:32;;;;;;;2.58;1.00;;;23.40;68.30;;;;;;4961168;28;20042;-76
2022/06/11 10:19:11;;;;;;;1.80;0.98;;;23.40;67.60;;;;;;5012041;28;20109;-75
2022/06/11 10:21:42;;;;;;;3.90;1.23;;;23.50;67.40;;;;;;5012229;28;20104;-77
2022/06/11 10:24:13;;;;;;;2.28;1.08;;;23.50;67.70;;;;;;4994245;28;20030;-75
2022/06/11 10:26:50;;;;;;;3.25;0.90;;;23.60;67.40;;;;;;5011781;28;20074;-75
2022/06/11 10:29:42;;;;;;;1.58;0.70;;;23.80;67.20;;;;;;5011922;28;20034;-75
2022/06/11 10:32:17;;;;;;;1.65;0.70;;;24.00;66.70;;;;;;5011799;28;20038;-74
2022/06/11 10:34:52;;;;;;;2.20;1.02;;;24.10;66.30;;;;;;5011751;28;20037;-73
2022/06/11 10:37:31;;;;;;;1.85;0.70;;;24.10;65.90;;;;;;5011651;28;20026;-75
2022/06/11 10:40:21;;;;;;;2.30;0.90;;;23.90;66.30;;;;;;5011987;28;20030;-73
2022/06/11 10:43:25;;;;;;;1.73;0.70;;;23.80;66.60;;;;;;5011933;28;20034;-73
2022/06/11 10:45:51;;;;;;;2.53;0.85;;;24.00;66.40;;;;;;5011492;28;20528;-72
2022/06/11 10:48:19;;;;;;;1.65;0.77;;;24.10;66.00;;;;;;5011456;28;20068;-72
2022/06/11 10:50:45;;;;;;;1.45;0.50;;;24.10;65.80;;;;;;5013720;28;20069;-72
2022/06/11 10:53:25;;;;;;;2.28;0.80;;;24.30;65.60;;;;;;4997128;28;20050;-74
2022/06/11 10:55:57;;;;;;;;;;;24.30;65.20;;;;;;5015441;28;20536;-72
2022/06/11 10:58:46;;;;;;;1.52;0.70;;;24.30;65.30;;;;;;4997709;28;19985;-75
2022/06/11 11:01:32;;;;;;;2.40;0.70;;;24.40;65.00;;;;;;5015046;28;20041;-76
2022/06/11 11:04:06;;;;;;;2.15;0.70;;;24.50;64.80;;;;;;5015253;28;20083;-75
2022/06/11 11:06:35;;;;;;;0.93;0.60;;;24.40;64.90;;;;;;5014849;28;20081;-75
2022/06/11 11:09:12;;;;;;;1.35;0.77;;;24.30;65.00;;;;;;4998041;28;20045;-75
2022/06/11 11:11:44;;;;;;;2.88;0.75;;;24.40;65.10;;;;;;5015390;28;20149;-77
2022/06/11 11:14:26;;;;;;;2.22;0.77;;;24.30;64.70;;;;;;4997176;28;20030;-77
2022/06/11 11:16:53;;;;;;;1.88;0.90;;;24.30;65.10;;;;;;4980233;28;20047;-74
2022/06/11 11:19:23;;;;;;;1.73;0.80;;;24.20;65.10;;;;;;5014772;28;20367;-75
2022/06/11 11:21:55;;;;;;;2.35;0.90;;;24.30;65.10;;;;;;5015245;28;20038;-74
2022/06/11 11:24:32;;;;;;;1.30;0.63;;;24.10;65.00;;;;;;5014684;28;20038;-74
2022/06/11 11:27:04;;;;;;;1.52;0.60;;;23.90;65.40;;;;;;5014596;28;20040;-75
2022/06/11 11:29:33;;;;;;;2.50;0.90;;;24.10;65.30;;;;;;4980920;28;20034;-74
2022/06/11 11:32:04;;;;;;;1.50;0.75;;;24.10;64.90;;;;;;5015393;28;20478;-74
2022/06/11 11:34:34;;;;;;;2.38;0.82;;;24.10;65.00;;;;;;5014590;28;20040;-74
2022/06/11 11:37:29;;;;;;;3.15;1.02;;;24.10;64.80;;;;;;5014909;28;20064;-74
2022/06/11 11:39:59;;;;;;;3.45;1.00;;;24.20;64.60;;;;;;5014420;28;20057;-74
2022/06/11 11:42:31;;;;;;;2.60;0.88;;;24.30;64.50;;;;;;4996117;28;20482;-74
2022/06/11 11:44:57;;;;;;;1.63;0.68;;;24.40;64.20;;;;;;5014603;28;20072;-73
2022/06/11 11:47:34;;;;;;;1.90;0.70;;;24.60;63.80;;;;;;5014594;28;20466;-76
2022/06/11 11:50:24;;;;;;;0.85;0.70;;;24.60;63.50;;;;;;5014233;28;20531;-77
2022/06/11 11:53:02;;;;;;;1.52;0.50;;;24.60;63.30;;;;;;4995049;28;20096;-75
2022/06/11 11:55:33;;;;;;;2.03;0.75;;;24.60;63.60;;;;;;5015117;28;20053;-76
2022/06/11 11:58:03;;;;;;;2.25;0.68;;;24.60;63.60;;;;;;5013927;28;20108;-74
2022/06/11 12:00:39;;;;;;;3.13;0.68;;;24.50;63.40;;;;;;5013357;28;20093;-75
2022/06/11 12:03:13;;;;;;;2.08;0.52;;;24.40;63.60;;;;;;5014458;28;20053;-75
2022/06/11 12:05:49;;;;;;;1.92;0.80;;;24.40;63.90;;;;;;5013835;28;20038;-74
2022/06/11 12:08:22;;;;;;;2.70;0.90;;;24.40;63.80;;;;;;4996508;28;20034;-76
2022/06/11 12:10:51;;;;;;;1.35;0.52;;;24.30;63.80;;;;;;4996463;28;20112;-75
2022/06/11 12:13:22;;;;;;;1.70;0.70;;;24.30;64.10;;;;;;4995637;28;20401;-75
2022/06/11 12:15:53;;;;;;;1.40;0.70;;;24.30;64.00;;;;;;5013620;28;20042;-76
2022/06/11 12:18:25;;;;;;;2.40;0.88;;;24.30;63.80;;;;;;4995726;28;20401;-74
2022/06/11 12:20:59;;;;;;;1.05;0.70;;;24.30;63.70;;;;;;4978772;28;20034;-75
2022/06/11 12:23:46;;;;;;;1.67;0.90;;;24.30;63.80;;;;;;5013735;28;20026;-75
2022/06/11 12:26:25;;;;;;;2.67;0.93;;;24.30;63.50;;;;;;5011626;28;20042;-75
2022/06/11 12:29:05;;;;;;;2.10;1.00;;;24.30;63.60;;;;;;5013748;28;20426;-75
2022/06/11 12:31:32;;;;;;;1.40;0.73;;;24.30;63.60;;;;;;5013622;28;20092;-75
2022/06/11 12:34:01;;;;;;;0.75;0.68;;;24.50;63.50;;;;;;5013528;28;20045;-75
2022/06/11 12:37:07;;;;;;;2.28;0.80;;;24.60;63.90;;;;;;4996372;28;20042;-75
2022/06/11 12:40:00;;;;;;;1.65;0.90;;;24.70;62.90;;;;;;5001233;28;20050;-75
2022/06/11 12:42:42;;;;;;;1.63;0.82;;;24.70;62.90;;;;;;5012398;28;20096;-76
2022/06/11 12:45:30;;;;;;;2.45;0.88;;;24.60;62.90;;;;;;5013336;28;20093;-76
2022/06/11 12:48:19;;;;;;;1.65;0.90;;;24.50;63.10;;;;;;4995816;28;20042;-75
2022/06/11 12:51:07;;;;;;;0.60;0.60;;;24.40;63.50;;;;;;5013444;28;20092;-75
2022/06/11 12:53:58;;;;;;;2.22;1.05;;;24.50;63.50;;;;;;5013013;28;20096;-75
2022/06/11 12:56:41;;;;;;;1.60;0.70;;;24.60;63.20;;;;;;4997650;28;20046;-75
2022/06/11 12:59:34;;;;;;;1.65;0.90;;;24.70;62.90;;;;;;4995060;28;20034;-75
2022/06/11 13:02:24;;;;;;;1.77;1.00;;;24.70;62.60;;;;;;5013004;28;20045;-76
2022/06/11 13:05:21;;;;;;;2.88;0.68;;;24.60;62.50;;;;;;5013050;28;20164;-76
2022/06/11 13:08:27;;;;;;;1.83;0.77;;;24.40;63.00;;;;;;4998500;28;20068;-75
2022/06/11 13:11:09;;;;;;;1.23;0.60;;;24.30;63.20;;;;;;4999091;28;20043;-76
2022/06/11 13:13:56;;;;;;;0.98;0.60;;;24.40;63.40;;;;;;5012302;28;20037;-74
2022/06/11 13:16:35;;;;;;;3.58;1.00;;;24.30;63.30;;;;;;5012615;28;20149;-75
2022/06/11 13:19:25;;;;;;;2.58;0.77;;;24.40;63.30;;;;;;4977914;28;20030;-75